Jonni Ritscher — A8JT7 — position and weather

sailwx.info

Track history (hours):
 
Tides and Currents Weather Stations Pressure Air Temp Water Temp Dewpoint Dewpoint Depression Visibility Wind Speed Wind Dir Waves Ship Positions

Jonni Ritscher

Last reported at 2015-May-05 18:19 UTC. Time now 2015-May-06 12:26 UTC.
Position N 39°14' W 074°05'.

Length 178 m; draft 8.9 m.

Type: Ship. MMSI: 636091136.

Date/timePositionNaut miles runAvg speedWind from/ knotsBaromVisibWave heightAir tempDewpointWater temp
2015-May-05 18:19N 39°14' W 074°05'1215.2
2015-May-05 17:33N 39°25' W 074°00'1515.3
2015-May-05 16:33N 39°39' W 073°53'1515.3
2015-May-05 15:33N 39°55' W 073°51'3115.4
2015-May-05 13:33N 40°25' W 073°48'1414.1
2015-May-05 12:33N 40°35' W 074°02'7 6.9
2015-May-05 11:33N 40°40' W 074°09'1 1.4
2015-May-05 10:33N 40°41' W 074°09'0 0.0
2015-May-05 09:31N 40°41' W 074°09'0 0.0
2015-May-05 08:30N 40°41' W 074°09'0 0.0
2015-May-05 07:33N 40°41' W 074°09'0 0.0
2015-May-05 06:33N 40°41' W 074°09'0 0.0
2015-May-05 05:32N 40°41' W 074°09'0 0.0
2015-May-05 04:29N 40°41' W 074°09'0 0.0
2015-May-05 03:32N 40°41' W 074°09'0 0.0
2015-May-05 02:28N 40°41' W 074°09'0 0.0
2015-May-05 01:33N 40°41' W 074°09'0 0.0
2015-May-05 00:33N 40°41' W 074°09'0 0.0
2015-May-04 23:33N 40°41' W 074°09'0 0.0
2015-May-04 22:32N 40°41' W 074°09'0 0.0
2015-May-04 21:32N 40°41' W 074°09'0 0.0
2015-May-04 20:31N 40°41' W 074°09'0 0.0
2015-May-04 19:31N 40°41' W 074°09'0 0.0
2015-May-04 18:33N 40°41' W 074°09'0 0.0
2015-May-04 17:33N 40°41' W 074°09'0 0.0
2015-May-04 16:30N 40°41' W 074°09'0 0.0
2015-May-04 15:29N 40°41' W 074°09'0 0.0
2015-May-04 14:32N 40°41' W 074°09'0 0.0
2015-May-04 13:28N 40°41' W 074°09'0 0.0
2015-May-04 12:31N 40°41' W 074°09'2 2.3
2015-May-04 11:33N 40°39' W 074°09'6 5.9
2015-May-04 10:33N 40°36' W 074°02'8 8.3
2015-May-04 09:33N 40°29' W 073°55'9 8.8
2015-May-04 08:33N 40°27' W 073°44'9 8.7
2015-May-04 07:33N 40°28' W 073°33'10 9.9
2015-May-04 06:33N 40°28' W 073°20'1010.3
2015-May-04 05:33N 40°29' W 073°06'1010.3
2015-May-04 04:33N 40°29' W 072°53'1010.2
2015-May-04 03:33N 40°30' W 072°39'1010.2
2015-May-04 02:33N 40°30' W 072°26'1010.1
2015-May-04 01:33N 40°30' W 072°13'1010.1
2015-May-04 00:33N 40°31' W 071°59'1010.2
2015-May-03 23:33N 40°31' W 071°46'1010.2
2015-May-03 22:33N 40°31' W 071°32'1010.4
2015-May-03 21:33N 40°31' W 071°19'1010.5
2015-May-03 20:33N 40°32' W 071°05'1010.4
2015-May-03 19:33N 40°32' W 070°51'1010.4
2015-May-03 18:33N 40°32' W 070°38'1110.6
2015-May-03 17:33N 40°33' W 070°24'1110.5
2015-May-03 16:33N 40°33' W 070°10'1010.4
2015-May-03 15:33N 40°33' W 069°56'10 9.7
2015-May-03 14:33N 40°33' W 069°43'1413.8
2015-May-03 13:34N 40°34' W 069°26'1717.0
2015-May-03 12:33N 40°34' W 069°03'2017.2
2015-May-03 11:23N 40°35' W 068°37'  
2015-Apr-26 03:32N 49°57' W 003°06'9115.2
2015-Apr-25 21:34N 49°42' W 000°47'1817.7
2015-Apr-25 20:34N 49°35' W 000°22'1616.0
2015-Apr-25 19:34N 49°30' E 000°02'6 5.8
2015-Apr-25 18:33N 49°27' E 000°10'  
Track history (hours):
 
Tides and Currents Weather Stations Pressure Air Temp Water Temp Dewpoint Dewpoint Depression Visibility Wind Speed Wind Dir Waves Ship Positions

Jonni Ritscher

Last reported at 2015-May-05 18:19 UTC. Time now 2015-May-06 12:26 UTC.
Position N 39°14' W 074°05'.

Length 178 m; draft 8.9 m.

Type: Ship. MMSI: 636091136.

Date/timePositionNaut miles runAvg speedWind from/ knotsBaromVisibWave heightAir tempDewpointWater temp
2015-May-05 18:19N 39°14' W 074°05'1215.2
2015-May-05 17:33N 39°25' W 074°00'1515.3
2015-May-05 16:33N 39°39' W 073°53'1515.3
2015-May-05 15:33N 39°55' W 073°51'3115.4
2015-May-05 13:33N 40°25' W 073°48'1414.1
2015-May-05 12:33N 40°35' W 074°02'7 6.9
2015-May-05 11:33N 40°40' W 074°09'1 1.4
2015-May-05 10:33N 40°41' W 074°09'0 0.0
2015-May-05 09:31N 40°41' W 074°09'0 0.0
2015-May-05 08:30N 40°41' W 074°09'0 0.0
2015-May-05 07:33N 40°41' W 074°09'0 0.0
2015-May-05 06:33N 40°41' W 074°09'0 0.0
2015-May-05 05:32N 40°41' W 074°09'0 0.0
2015-May-05 04:29N 40°41' W 074°09'0 0.0
2015-May-05 03:32N 40°41' W 074°09'0 0.0
2015-May-05 02:28N 40°41' W 074°09'0 0.0
2015-May-05 01:33N 40°41' W 074°09'0 0.0
2015-May-05 00:33N 40°41' W 074°09'0 0.0
2015-May-04 23:33N 40°41' W 074°09'0 0.0
2015-May-04 22:32N 40°41' W 074°09'0 0.0
2015-May-04 21:32N 40°41' W 074°09'0 0.0
2015-May-04 20:31N 40°41' W 074°09'0 0.0
2015-May-04 19:31N 40°41' W 074°09'0 0.0
2015-May-04 18:33N 40°41' W 074°09'0 0.0
2015-May-04 17:33N 40°41' W 074°09'0 0.0
2015-May-04 16:30N 40°41' W 074°09'0 0.0
2015-May-04 15:29N 40°41' W 074°09'0 0.0
2015-May-04 14:32N 40°41' W 074°09'0 0.0
2015-May-04 13:28N 40°41' W 074°09'0 0.0
2015-May-04 12:31N 40°41' W 074°09'2 2.3
2015-May-04 11:33N 40°39' W 074°09'6 5.9
2015-May-04 10:33N 40°36' W 074°02'8 8.3
2015-May-04 09:33N 40°29' W 073°55'9 8.8
2015-May-04 08:33N 40°27' W 073°44'9 8.7
2015-May-04 07:33N 40°28' W 073°33'10 9.9
2015-May-04 06:33N 40°28' W 073°20'1010.3
2015-May-04 05:33N 40°29' W 073°06'1010.3
2015-May-04 04:33N 40°29' W 072°53'1010.2
2015-May-04 03:33N 40°30' W 072°39'1010.2
2015-May-04 02:33N 40°30' W 072°26'1010.1
2015-May-04 01:33N 40°30' W 072°13'1010.1
2015-May-04 00:33N 40°31' W 071°59'1010.2
2015-May-03 23:33N 40°31' W 071°46'1010.2
2015-May-03 22:33N 40°31' W 071°32'1010.4
2015-May-03 21:33N 40°31' W 071°19'1010.5
2015-May-03 20:33N 40°32' W 071°05'1010.4
2015-May-03 19:33N 40°32' W 070°51'1010.4
2015-May-03 18:33N 40°32' W 070°38'1110.6
2015-May-03 17:33N 40°33' W 070°24'1110.5
2015-May-03 16:33N 40°33' W 070°10'1010.4
2015-May-03 15:33N 40°33' W 069°56'10 9.7
2015-May-03 14:33N 40°33' W 069°43'1413.8
2015-May-03 13:34N 40°34' W 069°26'1717.0
2015-May-03 12:33N 40°34' W 069°03'2017.2
2015-May-03 11:23N 40°35' W 068°37'  
2015-Apr-26 03:32N 49°57' W 003°06'9115.2
2015-Apr-25 21:34N 49°42' W 000°47'1817.7
2015-Apr-25 20:34N 49°35' W 000°22'1616.0
2015-Apr-25 19:34N 49°30' E 000°02'6 5.8
2015-Apr-25 18:33N 49°27' E 000°10'  

Dump ship's entire track history